sensor_id;sensor_type;location;lat;lon;timestamp;temperature;humidity
74081;SHT31;62438;52.228;6.864;2023-07-28T00:01:39;17.61;99.99
74081;SHT31;62438;52.228;6.864;2023-07-28T00:03:40;17.60;99.99
74081;SHT31;62438;52.228;6.864;2023-07-28T00:05:40;17.64;99.99
74081;SHT31;62438;52.228;6.864;2023-07-28T00:07:40;17.59;99.99
74081;SHT31;62438;52.228;6.864;2023-07-28T00:09:41;17.57;99.99
74081;SHT31;62438;52.228;6.864;2023-07-28T00:11:41;17.57;99.99
74081;SHT31;62438;52.228;6.864;2023-07-28T00:13:42;17.59;99.99
74081;SHT31;62438;52.228;6.864;2023-07-28T00:15:43;17.53;99.99
74081;SHT31;62438;52.228;6.864;2023-07-28T00:17:43;17.54;99.99
74081;SHT31;62438;52.228;6.864;2023-07-28T00:19:44;17.53;99.99
74081;SHT31;62438;52.228;6.864;2023-07-28T00:21:44;17.53;99.99
74081;SHT31;62438;52.228;6.864;2023-07-28T00:23:45;17.51;99.99
74081;SHT31;62438;52.228;6.864;2023-07-28T00:25:45;17.50;99.99
74081;SHT31;62438;52.228;6.864;2023-07-28T00:27:46;17.51;99.99
74081;SHT31;62438;52.228;6.864;2023-07-28T00:29:46;17.51;99.99
74081;SHT31;62438;52.228;6.864;2023-07-28T00:31:46;17.49;99.99
74081;SHT31;62438;52.228;6.864;2023-07-28T00:33:47;17.44;99.99
74081;SHT31;62438;52.228;6.864;2023-07-28T00:35:47;17.46;99.99
74081;SHT31;62438;52.228;6.864;2023-07-28T00:37:48;17.47;99.99
74081;SHT31;62438;52.228;6.864;2023-07-28T00:39:49;17.49;99.99
74081;SHT31;62438;52.228;6.864;2023-07-28T00:41:49;17.53;99.99
74081;SHT31;62438;52.228;6.864;2023-07-28T00:43:49;17.50;99.99
74081;SHT31;62438;52.228;6.864;2023-07-28T00:45:50;17.50;99.99
74081;SHT31;62438;52.228;6.864;2023-07-28T00:47:51;17.54;99.99
74081;SHT31;62438;52.228;6.864;2023-07-28T00:49:51;17.51;99.99
74081;SHT31;62438;52.228;6.864;2023-07-28T00:51:52;17.55;99.99
74081;SHT31;62438;52.228;6.864;2023-07-28T00:53:53;17.54;99.99
74081;SHT31;62438;52.228;6.864;2023-07-28T00:55:53;17.54;99.99
74081;SHT31;62438;52.228;6.864;2023-07-28T00:57:54;17.53;99.99
74081;SHT31;62438;52.228;6.864;2023-07-28T00:59:54;17.51;99.99
74081;SHT31;62438;52.228;6.864;2023-07-28T01:01:55;17.50;99.99
74081;SHT31;62438;52.228;6.864;2023-07-28T01:03:55;17.50;99.99
74081;SHT31;62438;52.228;6.864;2023-07-28T01:08:43;17.53;99.99
74081;SHT31;62438;52.228;6.864;2023-07-28T01:10:46;17.53;99.99
74081;SHT31;62438;52.228;6.864;2023-07-28T01:12:46;17.54;99.99
74081;SHT31;62438;52.228;6.864;2023-07-28T01:14:47;17.53;99.99
74081;SHT31;62438;52.228;6.864;2023-07-28T01:16:47;17.54;99.99
74081;SHT31;62438;52.228;6.864;2023-07-28T01:18:48;17.53;99.99
74081;SHT31;62438;52.228;6.864;2023-07-28T01:20:50;17.55;99.99
74081;SHT31;62438;52.228;6.864;2023-07-28T01:23:05;17.55;99.99
74081;SHT31;62438;52.228;6.864;2023-07-28T01:27:32;17.59;99.99
74081;SHT31;62438;52.228;6.864;2023-07-28T01:29:33;17.57;99.99
74081;SHT31;62438;52.228;6.864;2023-07-28T01:31:34;17.55;99.99
74081;SHT31;62438;52.228;6.864;2023-07-28T01:33:35;17.59;99.99
74081;SHT31;62438;52.228;6.864;2023-07-28T01:35:36;17.61;99.99
74081;SHT31;62438;52.228;6.864;2023-07-28T01:37:37;17.60;99.99
74081;SHT31;62438;52.228;6.864;2023-07-28T01:39:38;17.57;99.99
74081;SHT31;62438;52.228;6.864;2023-07-28T01:41:38;17.60;99.99
74081;SHT31;62438;52.228;6.864;2023-07-28T01:43:43;17.57;99.99
74081;SHT31;62438;52.228;6.864;2023-07-28T01:45:43;17.59;99.99
74081;SHT31;62438;52.228;6.864;2023-07-28T01:47:44;17.61;99.99
74081;SHT31;62438;52.228;6.864;2023-07-28T01:49:44;17.60;99.99
74081;SHT31;62438;52.228;6.864;2023-07-28T01:51:45;17.60;99.99
74081;SHT31;62438;52.228;6.864;2023-07-28T01:53:45;17.63;99.99
74081;SHT31;62438;52.228;6.864;2023-07-28T01:55:46;17.61;99.99
74081;SHT31;62438;52.228;6.864;2023-07-28T01:57:54;17.61;99.99
74081;SHT31;62438;52.228;6.864;2023-07-28T01:59:55;17.63;99.99
74081;SHT31;62438;52.228;6.864;2023-07-28T02:01:55;17.64;99.99
74081;SHT31;62438;52.228;6.864;2023-07-28T02:03:56;17.63;99.99
74081;SHT31;62438;52.228;6.864;2023-07-28T02:05:56;17.63;99.99
74081;SHT31;62438;52.228;6.864;2023-07-28T02:07:57;17.64;99.99
74081;SHT31;62438;52.228;6.864;2023-07-28T02:09:57;17.64;99.99
74081;SHT31;62438;52.228;6.864;2023-07-28T02:11:58;17.67;99.99
74081;SHT31;62438;52.228;6.864;2023-07-28T02:13:58;17.70;99.99
74081;SHT31;62438;52.228;6.864;2023-07-28T02:15:59;17.64;99.99
74081;SHT31;62438;52.228;6.864;2023-07-28T02:17:59;17.67;99.99
74081;SHT31;62438;52.228;6.864;2023-07-28T02:19:59;17.66;99.99
74081;SHT31;62438;52.228;6.864;2023-07-28T02:22:01;17.66;99.99
74081;SHT31;62438;52.228;6.864;2023-07-28T02:24:01;17.66;99.99
74081;SHT31;62438;52.228;6.864;2023-07-28T02:26:02;17.61;99.99
74081;SHT31;62438;52.228;6.864;2023-07-28T02:28:02;17.61;99.99
74081;SHT31;62438;52.228;6.864;2023-07-28T02:30:04;17.66;99.99
74081;SHT31;62438;52.228;6.864;2023-07-28T02:32:05;17.63;99.99
74081;SHT31;62438;52.228;6.864;2023-07-28T02:34:06;17.61;99.99
74081;SHT31;62438;52.228;6.864;2023-07-28T02:36:06;17.60;99.99
74081;SHT31;62438;52.228;6.864;2023-07-28T02:38:06;17.59;99.99
74081;SHT31;62438;52.228;6.864;2023-07-28T02:40:07;17.59;99.99
74081;SHT31;62438;52.228;6.864;2023-07-28T02:42:08;17.57;99.99
74081;SHT31;62438;52.228;6.864;2023-07-28T02:44:08;17.54;99.99
74081;SHT31;62438;52.228;6.864;2023-07-28T02:46:09;17.55;99.99
74081;SHT31;62438;52.228;6.864;2023-07-28T02:48:09;17.55;99.99
74081;SHT31;62438;52.228;6.864;2023-07-28T02:50:10;17.55;99.99
74081;SHT31;62438;52.228;6.864;2023-07-28T02:52:10;17.53;99.99
74081;SHT31;62438;52.228;6.864;2023-07-28T02:54:10;17.51;99.99
74081;SHT31;62438;52.228;6.864;2023-07-28T02:56:11;17.51;99.99
74081;SHT31;62438;52.228;6.864;2023-07-28T02:58:12;17.51;99.99
74081;SHT31;62438;52.228;6.864;2023-07-28T03:00:13;17.53;99.99
74081;SHT31;62438;52.228;6.864;2023-07-28T03:02:14;17.51;99.99
74081;SHT31;62438;52.228;6.864;2023-07-28T03:04:14;17.51;99.99
74081;SHT31;62438;52.228;6.864;2023-07-28T03:06:15;17.49;99.99
74081;SHT31;62438;52.228;6.864;2023-07-28T03:08:15;17.49;99.99
74081;SHT31;62438;52.228;6.864;2023-07-28T03:10:16;17.49;99.99
74081;SHT31;62438;52.228;6.864;2023-07-28T03:12:17;17.47;99.99
74081;SHT31;62438;52.228;6.864;2023-07-28T03:14:17;17.46;99.99
74081;SHT31;62438;52.228;6.864;2023-07-28T03:16:18;17.46;99.99
74081;SHT31;62438;52.228;6.864;2023-07-28T03:18:18;17.50;99.99
74081;SHT31;62438;52.228;6.864;2023-07-28T03:20:19;17.50;99.99
74081;SHT31;62438;52.228;6.864;2023-07-28T03:22:19;17.51;99.99
74081;SHT31;62438;52.228;6.864;2023-07-28T03:24:19;17.50;99.99
74081;SHT31;62438;52.228;6.864;2023-07-28T03:26:20;17.51;99.99
74081;SHT31;62438;52.228;6.864;2023-07-28T03:28:20;17.53;99.99
74081;SHT31;62438;52.228;6.864;2023-07-28T03:30:21;17.51;99.99
74081;SHT31;62438;52.228;6.864;2023-07-28T03:32:21;17.47;99.99
74081;SHT31;62438;52.228;6.864;2023-07-28T03:34:21;17.46;99.99
74081;SHT31;62438;52.228;6.864;2023-07-28T03:36:22;17.50;99.99
74081;SHT31;62438;52.228;6.864;2023-07-28T03:38:22;17.47;99.99
74081;SHT31;62438;52.228;6.864;2023-07-28T03:40:24;17.49;99.99
74081;SHT31;62438;52.228;6.864;2023-07-28T03:42:24;17.47;99.99
74081;SHT31;62438;52.228;6.864;2023-07-28T03:44:25;17.47;99.99
74081;SHT31;62438;52.228;6.864;2023-07-28T03:46:25;17.50;99.99
74081;SHT31;62438;52.228;6.864;2023-07-28T03:48:26;17.47;99.99
74081;SHT31;62438;52.228;6.864;2023-07-28T03:50:26;17.50;99.99
74081;SHT31;62438;52.228;6.864;2023-07-28T03:52:28;17.50;99.99
74081;SHT31;62438;52.228;6.864;2023-07-28T03:54:28;17.51;99.99
74081;SHT31;62438;52.228;6.864;2023-07-28T03:56:28;17.50;99.99
74081;SHT31;62438;52.228;6.864;2023-07-28T03:58:29;17.53;99.99
74081;SHT31;62438;52.228;6.864;2023-07-28T04:00:29;17.53;99.99
74081;SHT31;62438;52.228;6.864;2023-07-28T04:02:30;17.54;99.99
74081;SHT31;62438;52.228;6.864;2023-07-28T04:04:30;17.51;99.99
74081;SHT31;62438;52.228;6.864;2023-07-28T04:06:44;17.51;99.99
74081;SHT31;62438;52.228;6.864;2023-07-28T04:08:45;17.54;99.99
74081;SHT31;62438;52.228;6.864;2023-07-28T04:10:45;17.53;99.99
74081;SHT31;62438;52.228;6.864;2023-07-28T04:12:46;17.55;99.99
74081;SHT31;62438;52.228;6.864;2023-07-28T04:14:46;17.55;99.99
74081;SHT31;62438;52.228;6.864;2023-07-28T04:16:47;17.55;99.99
74081;SHT31;62438;52.228;6.864;2023-07-28T04:18:47;17.57;99.99
74081;SHT31;62438;52.228;6.864;2023-07-28T04:20:47;17.60;99.99
74081;SHT31;62438;52.228;6.864;2023-07-28T04:22:48;17.64;99.99
74081;SHT31;62438;52.228;6.864;2023-07-28T04:24:48;17.64;99.99
74081;SHT31;62438;52.228;6.864;2023-07-28T04:26:48;17.67;99.99
74081;SHT31;62438;52.228;6.864;2023-07-28T04:28:49;17.69;99.99
74081;SHT31;62438;52.228;6.864;2023-07-28T04:30:49;17.71;99.99
74081;SHT31;62438;52.228;6.864;2023-07-28T04:32:50;17.69;99.99
74081;SHT31;62438;52.228;6.864;2023-07-28T04:34:50;17.67;99.99
74081;SHT31;62438;52.228;6.864;2023-07-28T04:36:52;17.71;99.99
74081;SHT31;62438;52.228;6.864;2023-07-28T04:38:52;17.73;99.99
74081;SHT31;62438;52.228;6.864;2023-07-28T04:40:52;17.74;99.99
74081;SHT31;62438;52.228;6.864;2023-07-28T04:42:53;17.73;99.99
74081;SHT31;62438;52.228;6.864;2023-07-28T04:44:54;17.73;99.99
74081;SHT31;62438;52.228;6.864;2023-07-28T04:46:54;17.73;99.99
74081;SHT31;62438;52.228;6.864;2023-07-28T04:48:55;17.74;99.99
74081;SHT31;62438;52.228;6.864;2023-07-28T04:50:55;17.73;99.99
74081;SHT31;62438;52.228;6.864;2023-07-28T04:52:56;17.78;99.99
74081;SHT31;62438;52.228;6.864;2023-07-28T04:54:56;17.75;99.99
74081;SHT31;62438;52.228;6.864;2023-07-28T04:56:57;17.74;99.99
74081;SHT31;62438;52.228;6.864;2023-07-28T04:58:57;17.77;99.99
74081;SHT31;62438;52.228;6.864;2023-07-28T05:00:59;17.77;99.99
74081;SHT31;62438;52.228;6.864;2023-07-28T05:02:59;17.80;99.99
74081;SHT31;62438;52.228;6.864;2023-07-28T05:05:00;17.78;99.99
74081;SHT31;62438;52.228;6.864;2023-07-28T05:07:00;17.80;99.99
74081;SHT31;62438;52.228;6.864;2023-07-28T05:09:01;17.80;99.99
74081;SHT31;62438;52.228;6.864;2023-07-28T05:11:01;17.75;99.99
74081;SHT31;62438;52.228;6.864;2023-07-28T05:13:02;17.78;99.99
74081;SHT31;62438;52.228;6.864;2023-07-28T05:15:04;17.80;99.99
74081;SHT31;62438;52.228;6.864;2023-07-28T05:17:05;17.84;99.99
74081;SHT31;62438;52.228;6.864;2023-07-28T05:19:06;17.82;99.99
74081;SHT31;62438;52.228;6.864;2023-07-28T05:21:07;17.84;99.99
74081;SHT31;62438;52.228;6.864;2023-07-28T05:23:08;17.81;99.99
74081;SHT31;62438;52.228;6.864;2023-07-28T05:25:08;17.87;99.99
74081;SHT31;62438;52.228;6.864;2023-07-28T05:27:09;17.90;99.99
74081;SHT31;62438;52.228;6.864;2023-07-28T05:29:09;17.90;99.99
74081;SHT31;62438;52.228;6.864;2023-07-28T05:31:09;17.91;99.99
74081;SHT31;62438;52.228;6.864;2023-07-28T05:33:10;17.90;99.99
74081;SHT31;62438;52.228;6.864;2023-07-28T05:35:10;17.92;99.99
74081;SHT31;62438;52.228;6.864;2023-07-28T05:37:11;17.94;99.99
74081;SHT31;62438;52.228;6.864;2023-07-28T05:39:11;17.97;99.99
74081;SHT31;62438;52.228;6.864;2023-07-28T05:41:12;17.97;99.99
74081;SHT31;62438;52.228;6.864;2023-07-28T05:43:12;18.01;99.99
74081;SHT31;62438;52.228;6.864;2023-07-28T05:45:12;17.98;99.99
74081;SHT31;62438;52.228;6.864;2023-07-28T05:47:13;18.04;99.99
74081;SHT31;62438;52.228;6.864;2023-07-28T05:49:13;18.05;99.99
74081;SHT31;62438;52.228;6.864;2023-07-28T05:51:13;18.05;99.99
74081;SHT31;62438;52.228;6.864;2023-07-28T05:53:14;18.09;99.99
74081;SHT31;62438;52.228;6.864;2023-07-28T05:55:14;18.12;99.99
74081;SHT31;62438;52.228;6.864;2023-07-28T05:57:15;18.22;99.99
74081;SHT31;62438;52.228;6.864;2023-07-28T05:59:15;18.22;99.99
74081;SHT31;62438;52.228;6.864;2023-07-28T06:01:16;18.18;99.99
74081;SHT31;62438;52.228;6.864;2023-07-28T06:03:16;18.19;99.99
74081;SHT31;62438;52.228;6.864;2023-07-28T06:05:17;18.19;99.99
74081;SHT31;62438;52.228;6.864;2023-07-28T06:07:17;18.21;99.99
74081;SHT31;62438;52.228;6.864;2023-07-28T06:09:18;18.25;99.99
74081;SHT31;62438;52.228;6.864;2023-07-28T06:11:18;18.25;99.99
74081;SHT31;62438;52.228;6.864;2023-07-28T06:13:19;18.29;99.99
74081;SHT31;62438;52.228;6.864;2023-07-28T06:15:19;18.26;99.99
74081;SHT31;62438;52.228;6.864;2023-07-28T06:17:20;18.29;99.99
74081;SHT31;62438;52.228;6.864;2023-07-28T06:19:20;18.29;99.99
74081;SHT31;62438;52.228;6.864;2023-07-28T06:21:24;18.30;99.99
74081;SHT31;62438;52.228;6.864;2023-07-28T06:23:24;18.36;99.99
74081;SHT31;62438;52.228;6.864;2023-07-28T06:25:24;18.39;99.99
74081;SHT31;62438;52.228;6.864;2023-07-28T06:27:25;18.39;99.99
74081;SHT31;62438;52.228;6.864;2023-07-28T06:29:26;18.45;99.99
74081;SHT31;62438;52.228;6.864;2023-07-28T06:31:26;18.46;99.75
74081;SHT31;62438;52.228;6.864;2023-07-28T06:33:28;18.43;99.57
74081;SHT31;62438;52.228;6.864;2023-07-28T06:35:28;18.50;99.69
74081;SHT31;62438;52.228;6.864;2023-07-28T06:37:28;18.60;99.61
74081;SHT31;62438;52.228;6.864;2023-07-28T06:39:29;18.71;99.41
74081;SHT31;62438;52.228;6.864;2023-07-28T06:41:30;18.70;99.09
74081;SHT31;62438;52.228;6.864;2023-07-28T06:43:30;18.73;99.06
74081;SHT31;62438;52.228;6.864;2023-07-28T06:45:31;18.80;98.86
74081;SHT31;62438;52.228;6.864;2023-07-28T06:47:31;18.81;98.76
74081;SHT31;62438;52.228;6.864;2023-07-28T06:49:31;18.78;98.88
74081;SHT31;62438;52.228;6.864;2023-07-28T06:51:32;18.87;98.76
74081;SHT31;62438;52.228;6.864;2023-07-28T06:53:33;18.96;98.48
74081;SHT31;62438;52.228;6.864;2023-07-28T06:55:34;19.14;98.33
74081;SHT31;62438;52.228;6.864;2023-07-28T06:57:35;19.17;98.12
74081;SHT31;62438;52.228;6.864;2023-07-28T06:59:35;19.07;97.93
74081;SHT31;62438;52.228;6.864;2023-07-28T07:01:36;19.14;98.40
74081;SHT31;62438;52.228;6.864;2023-07-28T07:03:37;19.07;97.84
74081;SHT31;62438;52.228;6.864;2023-07-28T07:05:38;19.06;98.24
74081;SHT31;62438;52.228;6.864;2023-07-28T07:07:39;19.12;97.99
74081;SHT31;62438;52.228;6.864;2023-07-28T07:09:39;19.24;98.44
74081;SHT31;62438;52.228;6.864;2023-07-28T07:11:41;19.28;98.31
74081;SHT31;62438;52.228;6.864;2023-07-28T07:13:41;19.36;98.02
74081;SHT31;62438;52.228;6.864;2023-07-28T07:15:41;19.48;97.70
74081;SHT31;62438;52.228;6.864;2023-07-28T07:17:42;19.44;97.78
74081;SHT31;62438;52.228;6.864;2023-07-28T07:19:43;19.31;97.86
74081;SHT31;62438;52.228;6.864;2023-07-28T07:21:44;19.15;98.42
74081;SHT31;62438;52.228;6.864;2023-07-28T07:23:45;19.03;99.20
74081;SHT31;62438;52.228;6.864;2023-07-28T07:25:45;18.88;99.53
74081;SHT31;62438;52.228;6.864;2023-07-28T07:27:48;18.80;99.69
74081;SHT31;62438;52.228;6.864;2023-07-28T07:29:49;18.73;99.99
74081;SHT31;62438;52.228;6.864;2023-07-28T07:31:50;18.78;99.99
74081;SHT31;62438;52.228;6.864;2023-07-28T07:33:54;18.77;99.99
74081;SHT31;62438;52.228;6.864;2023-07-28T07:35:55;18.77;99.99
74081;SHT31;62438;52.228;6.864;2023-07-28T07:37:55;18.74;99.99
74081;SHT31;62438;52.228;6.864;2023-07-28T07:39:55;18.73;99.99
74081;SHT31;62438;52.228;6.864;2023-07-28T07:41:56;18.77;99.99
74081;SHT31;62438;52.228;6.864;2023-07-28T07:43:57;18.78;99.99
74081;SHT31;62438;52.228;6.864;2023-07-28T07:45:58;18.70;99.75
74081;SHT31;62438;52.228;6.864;2023-07-28T07:47:59;18.73;99.99
74081;SHT31;62438;52.228;6.864;2023-07-28T07:49:59;18.69;99.97
74081;SHT31;62438;52.228;6.864;2023-07-28T07:52:00;18.71;99.99
74081;SHT31;62438;52.228;6.864;2023-07-28T07:54:01;18.64;99.99
74081;SHT31;62438;52.228;6.864;2023-07-28T07:56:02;18.66;99.99
74081;SHT31;62438;52.228;6.864;2023-07-28T07:58:03;18.67;99.99
74081;SHT31;62438;52.228;6.864;2023-07-28T08:00:04;18.63;99.99
74081;SHT31;62438;52.228;6.864;2023-07-28T08:02:05;18.57;99.99
74081;SHT31;62438;52.228;6.864;2023-07-28T08:04:06;18.60;99.99
74081;SHT31;62438;52.228;6.864;2023-07-28T08:06:06;18.55;99.99
74081;SHT31;62438;52.228;6.864;2023-07-28T08:08:07;18.56;99.99
74081;SHT31;62438;52.228;6.864;2023-07-28T08:10:07;18.57;99.99
74081;SHT31;62438;52.228;6.864;2023-07-28T08:12:08;18.57;99.99
74081;SHT31;62438;52.228;6.864;2023-07-28T08:14:09;18.60;99.99
74081;SHT31;62438;52.228;6.864;2023-07-28T08:16:09;18.61;99.99
74081;SHT31;62438;52.228;6.864;2023-07-28T08:18:11;18.56;99.99
74081;SHT31;62438;52.228;6.864;2023-07-28T08:20:12;18.59;99.99
74081;SHT31;62438;52.228;6.864;2023-07-28T08:22:12;18.63;99.99
74081;SHT31;62438;52.228;6.864;2023-07-28T08:24:13;18.64;99.99
74081;SHT31;62438;52.228;6.864;2023-07-28T08:26:13;18.63;99.99
74081;SHT31;62438;52.228;6.864;2023-07-28T08:28:14;18.64;99.99
74081;SHT31;62438;52.228;6.864;2023-07-28T08:30:14;18.66;99.99
74081;SHT31;62438;52.228;6.864;2023-07-28T08:32:15;18.63;99.99
74081;SHT31;62438;52.228;6.864;2023-07-28T08:34:16;18.64;99.99
74081;SHT31;62438;52.228;6.864;2023-07-28T08:36:17;18.67;99.99
74081;SHT31;62438;52.228;6.864;2023-07-28T08:38:18;18.60;99.99
74081;SHT31;62438;52.228;6.864;2023-07-28T08:40:18;18.63;99.99
74081;SHT31;62438;52.228;6.864;2023-07-28T08:42:21;18.64;99.99
74081;SHT31;62438;52.228;6.864;2023-07-28T08:44:22;18.67;99.99
74081;SHT31;62438;52.228;6.864;2023-07-28T08:46:23;18.71;99.99
74081;SHT31;62438;52.228;6.864;2023-07-28T08:48:24;18.76;99.99
74081;SHT31;62438;52.228;6.864;2023-07-28T08:50:24;18.74;99.99
74081;SHT31;62438;52.228;6.864;2023-07-28T08:52:25;18.73;99.99
74081;SHT31;62438;52.228;6.864;2023-07-28T08:54:26;18.74;99.99
74081;SHT31;62438;52.228;6.864;2023-07-28T08:56:26;18.80;99.99
74081;SHT31;62438;52.228;6.864;2023-07-28T08:58:29;18.81;99.99
74081;SHT31;62438;52.228;6.864;2023-07-28T09:00:30;18.83;99.99
74081;SHT31;62438;52.228;6.864;2023-07-28T09:02:31;18.96;99.99
74081;SHT31;62438;52.228;6.864;2023-07-28T09:04:32;18.98;99.80
74081;SHT31;62438;52.228;6.864;2023-07-28T09:06:32;18.98;99.99
74081;SHT31;62438;52.228;6.864;2023-07-28T09:08:32;19.00;99.76
74081;SHT31;62438;52.228;6.864;2023-07-28T09:10:46;18.91;99.47
74081;SHT31;62438;52.228;6.864;2023-07-28T09:12:49;18.90;99.37
74081;SHT31;62438;52.228;6.864;2023-07-28T09:14:56;18.96;99.47
74081;SHT31;62438;52.228;6.864;2023-07-28T09:17:06;18.97;99.04
74081;SHT31;62438;52.228;6.864;2023-07-28T09:19:07;18.98;98.75
74081;SHT31;62438;52.228;6.864;2023-07-28T09:21:16;19.01;98.57
74081;SHT31;62438;52.228;6.864;2023-07-28T09:23:16;19.10;98.78
74081;SHT31;62438;52.228;6.864;2023-07-28T09:25:17;19.15;98.18
74081;SHT31;62438;52.228;6.864;2023-07-28T09:27:22;19.24;98.54
74081;SHT31;62438;52.228;6.864;2023-07-28T09:29:23;19.41;97.71
74081;SHT31;62438;52.228;6.864;2023-07-28T09:31:31;19.35;96.75
74081;SHT31;62438;52.228;6.864;2023-07-28T09:33:34;19.45;97.39
74081;SHT31;62438;52.228;6.864;2023-07-28T09:35:47;19.42;97.52
74081;SHT31;62438;52.228;6.864;2023-07-28T09:37:49;19.28;97.32
74081;SHT31;62438;52.228;6.864;2023-07-28T09:39:50;19.38;97.30
74081;SHT31;62438;52.228;6.864;2023-07-28T09:41:51;19.45;97.19
74081;SHT31;62438;52.228;6.864;2023-07-28T09:43:52;19.31;96.60
74081;SHT31;62438;52.228;6.864;2023-07-28T09:45:53;19.36;96.62
74081;SHT31;62438;52.228;6.864;2023-07-28T09:47:57;19.41;96.89
74081;SHT31;62438;52.228;6.864;2023-07-28T09:50:01;19.35;97.42
74081;SHT31;62438;52.228;6.864;2023-07-28T09:52:08;19.44;96.30
74081;SHT31;62438;52.228;6.864;2023-07-28T09:54:20;19.48;96.54
74081;SHT31;62438;52.228;6.864;2023-07-28T09:56:27;19.49;96.85
74081;SHT31;62438;52.228;6.864;2023-07-28T09:58:33;19.44;96.93
74081;SHT31;62438;52.228;6.864;2023-07-28T10:00:37;19.39;97.27
74081;SHT31;62438;52.228;6.864;2023-07-28T10:02:39;19.42;96.88
74081;SHT31;62438;52.228;6.864;2023-07-28T10:04:40;19.36;97.34
74081;SHT31;62438;52.228;6.864;2023-07-28T10:06:40;19.34;96.75
74081;SHT31;62438;52.228;6.864;2023-07-28T10:08:41;19.46;96.54
74081;SHT31;62438;52.228;6.864;2023-07-28T10:10:43;19.51;96.50
74081;SHT31;62438;52.228;6.864;2023-07-28T10:12:50;19.58;96.34
74081;SHT31;62438;52.228;6.864;2023-07-28T10:15:02;19.52;95.42
74081;SHT31;62438;52.228;6.864;2023-07-28T10:17:04;19.54;96.44
74081;SHT31;62438;52.228;6.864;2023-07-28T10:19:06;19.52;96.59
74081;SHT31;62438;52.228;6.864;2023-07-28T10:21:15;19.59;96.39
74081;SHT31;62438;52.228;6.864;2023-07-28T10:23:17;19.59;96.12
74081;SHT31;62438;52.228;6.864;2023-07-28T10:25:25;19.55;95.49
74081;SHT31;62438;52.228;6.864;2023-07-28T10:27:34;19.59;95.33
74081;SHT31;62438;52.228;6.864;2023-07-28T10:29:37;19.62;95.40
74081;SHT31;62438;52.228;6.864;2023-07-28T10:31:49;19.62;95.41
74081;SHT31;62438;52.228;6.864;2023-07-28T10:33:51;19.67;94.88
74081;SHT31;62438;52.228;6.864;2023-07-28T10:35:51;19.72;95.36
74081;SHT31;62438;52.228;6.864;2023-07-28T10:37:53;19.73;95.24
74081;SHT31;62438;52.228;6.864;2023-07-28T10:40:35;19.79;93.97
74081;SHT31;62438;52.228;6.864;2023-07-28T10:42:35;19.85;94.60
74081;SHT31;62438;52.228;6.864;2023-07-28T10:44:36;19.97;94.85
74081;SHT31;62438;52.228;6.864;2023-07-28T10:46:37;20.09;94.28
74081;SHT31;62438;52.228;6.864;2023-07-28T10:48:43;20.31;94.41
74081;SHT31;62438;52.228;6.864;2023-07-28T10:50:43;20.45;92.89
74081;SHT31;62438;52.228;6.864;2023-07-28T10:52:45;20.61;93.49
74081;SHT31;62438;52.228;6.864;2023-07-28T10:54:46;20.72;93.68
74081;SHT31;62438;52.228;6.864;2023-07-28T10:56:47;20.67;92.60
74081;SHT31;62438;52.228;6.864;2023-07-28T10:58:59;20.79;92.41
74081;SHT31;62438;52.228;6.864;2023-07-28T11:00:59;20.98;92.17
74081;SHT31;62438;52.228;6.864;2023-07-28T11:02:59;21.31;91.68
74081;SHT31;62438;52.228;6.864;2023-07-28T11:05:05;21.62;90.67
74081;SHT31;62438;52.228;6.864;2023-07-28T11:07:06;21.68;88.30
74081;SHT31;62438;52.228;6.864;2023-07-28T11:09:07;21.78;88.78
74081;SHT31;62438;52.228;6.864;2023-07-28T11:11:08;21.98;87.55
74081;SHT31;62438;52.228;6.864;2023-07-28T11:13:09;22.12;87.66
74081;SHT31;62438;52.228;6.864;2023-07-28T11:15:11;22.39;89.15
74081;SHT31;62438;52.228;6.864;2023-07-28T11:17:14;22.84;86.87
74081;SHT31;62438;52.228;6.864;2023-07-28T11:19:14;23.11;85.04
74081;SHT31;62438;52.228;6.864;2023-07-28T11:21:22;22.90;85.64
74081;SHT31;62438;52.228;6.864;2023-07-28T11:23:22;22.71;85.49
74081;SHT31;62438;52.228;6.864;2023-07-28T11:25:24;22.35;85.26
74081;SHT31;62438;52.228;6.864;2023-07-28T11:27:25;22.59;85.64
74081;SHT31;62438;52.228;6.864;2023-07-28T11:29:26;22.90;85.01
74081;SHT31;62438;52.228;6.864;2023-07-28T11:31:27;22.68;84.24
74081;SHT31;62438;52.228;6.864;2023-07-28T11:33:28;22.55;85.78
74081;SHT31;62438;52.228;6.864;2023-07-28T11:35:28;22.56;84.37
74081;SHT31;62438;52.228;6.864;2023-07-28T11:37:29;22.32;84.30
74081;SHT31;62438;52.228;6.864;2023-07-28T11:39:30;22.20;84.64
74081;SHT31;62438;52.228;6.864;2023-07-28T11:41:32;22.40;84.34
74081;SHT31;62438;52.228;6.864;2023-07-28T11:43:34;22.83;82.95
74081;SHT31;62438;52.228;6.864;2023-07-28T11:45:34;22.84;82.69
74081;SHT31;62438;52.228;6.864;2023-07-28T11:47:35;23.46;82.90
74081;SHT31;62438;52.228;6.864;2023-07-28T11:49:46;23.05;83.01
74081;SHT31;62438;52.228;6.864;2023-07-28T11:51:49;22.90;82.94
74081;SHT31;62438;52.228;6.864;2023-07-28T11:53:50;22.57;84.03
74081;SHT31;62438;52.228;6.864;2023-07-28T11:55:50;22.59;84.71
74081;SHT31;62438;52.228;6.864;2023-07-28T11:57:52;23.55;83.06
74081;SHT31;62438;52.228;6.864;2023-07-28T11:59:53;24.28;80.74
74081;SHT31;62438;52.228;6.864;2023-07-28T12:02:02;24.37;78.21
74081;SHT31;62438;52.228;6.864;2023-07-28T12:04:35;24.67;77.78
74081;SHT31;62438;52.228;6.864;2023-07-28T12:09:09;24.85;76.33
74081;SHT31;62438;52.228;6.864;2023-07-28T12:11:13;24.96;74.19
74081;SHT31;62438;52.228;6.864;2023-07-28T12:13:14;25.30;72.83
74081;SHT31;62438;52.228;6.864;2023-07-28T12:15:24;25.41;72.01
74081;SHT31;62438;52.228;6.864;2023-07-28T12:17:28;25.33;73.26
74081;SHT31;62438;52.228;6.864;2023-07-28T12:19:28;25.54;73.06
74081;SHT31;62438;52.228;6.864;2023-07-28T12:21:29;25.53;71.66
74081;SHT31;62438;52.228;6.864;2023-07-28T12:23:31;25.73;70.77
74081;SHT31;62438;52.228;6.864;2023-07-28T12:25:32;26.04;71.02
74081;SHT31;62438;52.228;6.864;2023-07-28T12:27:32;25.67;69.41
74081;SHT31;62438;52.228;6.864;2023-07-28T12:29:33;25.73;70.53
74081;SHT31;62438;52.228;6.864;2023-07-28T12:31:33;25.68;70.79
74081;SHT31;62438;52.228;6.864;2023-07-28T12:33:34;25.56;72.28
74081;SHT31;62438;52.228;6.864;2023-07-28T12:35:34;25.88;70.97
74081;SHT31;62438;52.228;6.864;2023-07-28T12:37:35;25.77;70.90
74081;SHT31;62438;52.228;6.864;2023-07-28T12:39:37;25.87;71.85
74081;SHT31;62438;52.228;6.864;2023-07-28T12:41:39;26.08;71.97
74081;SHT31;62438;52.228;6.864;2023-07-28T12:43:39;25.85;69.38
74081;SHT31;62438;52.228;6.864;2023-07-28T12:45:40;26.25;69.46
74081;SHT31;62438;52.228;6.864;2023-07-28T12:47:40;26.22;69.91
74081;SHT31;62438;52.228;6.864;2023-07-28T12:49:40;26.32;68.96
74081;SHT31;62438;52.228;6.864;2023-07-28T12:51:41;26.33;69.61
74081;SHT31;62438;52.228;6.864;2023-07-28T12:53:42;26.33;69.91
74081;SHT31;62438;52.228;6.864;2023-07-28T12:55:42;26.28;68.95